Time;durP1;ratioP1;P1;durP2;ratioP2;P2;SDS_P1;SDS_P2;PMS_P1;PMS_P2;Temp;Humidity;BMP_temperature;BMP_pressure;BME280_temperature;BME280_humidity;BME280_pressure;Samples;Min_cycle;Max_cycle;Signal;HPM_P1;HPM_P2
2021/12/29 00:02:04;;;;;;;0.40;0.40;;;;;;;0.26;100.00;99020.91;5049934;28;20401;-80
2021/12/29 00:04:37;;;;;;;1.75;0.75;;;;;;;0.22;100.00;99012.59;5063052;28;20057;-79
2021/12/29 00:07:16;;;;;;;0.45;0.40;;;;;;;0.17;100.00;99018.69;5043373;28;20050;-80
2021/12/29 00:09:50;;;;;;;0.40;0.40;;;;;;;0.24;100.00;99021.16;5043332;28;20049;-80
2021/12/29 00:12:24;;;;;;;0.52;0.38;;;;;;;0.23;100.00;99027.56;5045160;28;20052;-80
2021/12/29 00:14:57;;;;;;;0.70;0.40;;;;;;;0.27;100.00;99030.56;5050378;28;20053;-80
2021/12/29 00:17:25;;;;;;;1.08;0.63;;;;;;;0.20;100.00;99024.59;5049977;28;20049;-79
2021/12/29 00:19:58;;;;;;;0.40;0.40;;;;;;;0.23;100.00;99027.56;5040862;28;20049;-80
2021/12/29 00:22:28;;;;;;;0.85;0.38;;;;;;;0.30;100.00;99036.22;5052277;28;20072;-80
2021/12/29 00:25:02;;;;;;;0.40;0.40;;;;;;;0.34;100.00;99037.31;5050411;28;20053;-80
2021/12/29 00:27:35;;;;;;;0.35;0.35;;;;;;;0.28;100.00;99040.19;5052723;28;20045;-80
2021/12/29 00:30:05;;;;;;;0.30;0.30;;;;;;;0.22;100.00;99043.88;5051644;28;20048;-80
2021/12/29 00:32:56;;;;;;;0.30;0.30;;;;;;;0.29;100.00;99055.19;5045900;28;20045;-80
2021/12/29 00:35:49;;;;;;;0.40;0.40;;;;;;;0.22;100.00;99052.72;5051416;28;20511;-80
2021/12/29 00:38:37;;;;;;;0.50;0.32;;;;;;;0.30;100.00;99062.16;5046632;28;20500;-80
2021/12/29 00:41:29;;;;;;;0.30;0.30;;;;;;;0.30;100.00;99064.81;5045057;28;20056;-80
2021/12/29 00:44:21;;;;;;;0.30;0.30;;;;;;;0.30;100.00;99067.50;5054338;28;20528;-80
2021/12/29 00:47:11;;;;;;;0.30;0.30;;;;;;;0.23;100.00;99064.22;5040820;28;20053;-80
2021/12/29 00:49:40;;;;;;;0.73;0.40;;;;;;;0.29;100.00;99079.25;5043405;28;20614;-80
2021/12/29 00:52:14;;;;;;;0.30;0.30;;;;;;;0.28;100.00;99088.38;5044338;28;20513;-80
2021/12/29 00:54:49;;;;;;;0.47;0.30;;;;;;;0.28;100.00;99091.03;5043333;28;20053;-80
2021/12/29 00:57:22;;;;;;;0.30;0.30;;;;;;;0.29;100.00;99092.63;5045839;28;20056;-79
2021/12/29 00:59:56;;;;;;;0.30;0.30;;;;;;;0.26;100.00;99095.81;5063567;28;20049;-81
2021/12/29 01:02:29;;;;;;;1.10;0.60;;;;;;;0.22;100.00;99098.22;5051985;28;20053;-80
2021/12/29 01:05:03;;;;;;;0.45;0.40;;;;;;;0.23;100.00;99109.72;5047062;28;20053;-80
2021/12/29 01:07:37;;;;;;;0.30;0.30;;;;;;;0.29;100.00;99109.53;5047799;28;20041;-81
2021/12/29 01:10:14;;;;;;;1.20;0.60;;;;;;;0.26;100.00;99119.91;5046276;28;20048;-79
2021/12/29 01:12:53;;;;;;;0.40;0.30;;;;;;;0.25;100.00;99118.28;5040797;28;20427;-81
2021/12/29 01:15:32;;;;;;;1.25;0.77;;;;;;;0.27;100.00;99122.31;5049718;28;20048;-80
2021/12/29 01:18:06;;;;;;;0.75;0.50;;;;;;;0.29;100.00;99119.41;5043986;28;20049;-80
2021/12/29 01:20:35;;;;;;;2.88;0.82;;;;;;;0.28;100.00;99128.50;5045606;28;20481;-79
2021/12/29 01:23:08;;;;;;;3.05;1.15;;;;;;;0.20;100.00;99129.75;5048542;28;20048;-81
2021/12/29 01:25:43;;;;;;;1.05;0.52;;;;;;;0.25;100.00;99142.34;5034625;28;20472;-80
2021/12/29 01:28:11;;;;;;;2.58;0.75;;;;;;;0.20;100.00;99158.38;5049086;28;20473;-79
2021/12/29 01:30:39;;;;;;;1.75;0.68;;;;;;;0.25;100.00;99156.56;5045605;28;20049;-80
2021/12/29 01:33:12;;;;;;;3.30;0.85;;;;;;;0.22;100.00;99162.41;5052796;28;20053;-80
2021/12/29 01:35:45;;;;;;;1.73;0.60;;;;;;;0.23;100.00;99169.38;5043403;28;20037;-79
2021/12/29 01:38:19;;;;;;;0.30;0.30;;;;;;;0.20;100.00;99175.22;5052233;28;20045;-79
2021/12/29 01:40:53;;;;;;;0.55;0.40;;;;;;;0.19;100.00;99167.44;5044936;28;20064;-79
2021/12/29 01:43:28;;;;;;;3.13;0.70;;;;;;;0.32;100.00;99175.91;5047751;28;20484;-79
2021/12/29 01:46:01;;;;;;;0.60;0.43;;;;;;;0.26;100.00;99187.63;5038224;28;20045;-80
2021/12/29 01:48:34;;;;;;;0.47;0.30;;;;;;;0.25;100.00;99180.66;5047426;28;20096;-79
2021/12/29 01:51:07;;;;;;;0.30;0.30;;;;;;;0.24;100.00;99188.94;5048194;28;20048;-80
2021/12/29 01:53:48;;;;;;;1.13;0.50;;;;;;;0.23;100.00;99188.09;5044073;28;20378;-79
2021/12/29 01:56:17;;;;;;;0.82;0.43;;;;;;;0.24;100.00;99191.59;5043746;28;20075;-80
2021/12/29 01:58:50;;;;;;;1.90;0.70;;;;;;;0.23;100.00;99196.13;5037835;28;20060;-80
2021/12/29 02:01:19;;;;;;;1.50;0.50;;;;;;;0.23;100.00;99190.78;5038639;28;20057;-79
2021/12/29 02:03:47;;;;;;;0.63;0.52;;;;;;;0.24;100.00;99197.75;5042289;28;20053;-79
2021/12/29 02:06:20;;;;;;;1.73;0.57;;;;;;;0.22;100.00;99199.03;5036724;28;20057;-80
2021/12/29 02:08:55;;;;;;;0.40;0.40;;;;;;;0.19;100.00;99196.88;5047955;28;20040;-79
2021/12/29 02:11:30;;;;;;;0.40;0.40;;;;;;;0.21;100.00;99208.13;5044821;28;20056;-80
2021/12/29 02:14:06;;;;;;;0.40;0.40;;;;;;;0.17;100.00;99195.25;5044491;28;20050;-79
2021/12/29 02:16:39;;;;;;;0.82;0.63;;;;;;;0.20;100.00;99204.66;5046997;28;20048;-79
2021/12/29 02:19:13;;;;;;;2.13;0.73;;;;;;;0.16;100.00;99220.38;5048239;28;20473;-79
2021/12/29 02:21:53;;;;;;;1.80;0.50;;;;;;;0.20;100.00;99227.94;5046314;28;20048;-78
2021/12/29 02:24:34;;;;;;;1.52;0.80;;;;;;;0.16;100.00;99223.06;5045987;28;20060;-79
2021/12/29 02:27:12;;;;;;;2.28;0.80;;;;;;;0.27;100.00;99224.00;5037300;28;20049;-79
2021/12/29 02:29:47;;;;;;;1.15;0.60;;;;;;;0.23;100.00;99246.16;5044313;28;20049;-79
2021/12/29 02:32:22;;;;;;;1.02;0.40;;;;;;;0.20;100.00;99236.75;5050460;28;20052;-80
2021/12/29 02:34:51;;;;;;;0.88;0.50;;;;;;;0.15;100.00;99231.31;5040378;28;20128;-80
2021/12/29 02:37:25;;;;;;;1.25;0.52;;;;;;;0.21;100.00;99240.22;5046710;28;20401;-80
2021/12/29 02:39:59;;;;;;;2.13;0.80;;;;;;;0.22;100.00;99245.38;5047759;28;20045;-80
2021/12/29 02:42:30;;;;;;;1.20;0.60;;;;;;;0.23;100.00;99248.84;5049520;28;20084;-79
2021/12/29 02:45:05;;;;;;;2.65;0.82;;;;;;;0.22;100.00;99253.38;5043976;28;20052;-79
2021/12/29 02:47:38;;;;;;;2.00;0.70;;;;;;;0.21;100.00;99251.75;5044311;28;20053;-80
2021/12/29 02:50:14;;;;;;;2.08;0.70;;;;;;;0.14;100.00;99251.13;5060131;28;20041;-79
2021/12/29 02:52:50;;;;;;;0.47;0.40;;;;;;;0.18;100.00;99257.59;5043739;28;20041;-79
2021/12/29 02:55:23;;;;;;;2.00;0.70;;;;;;;0.19;100.00;99253.06;5045454;28;20041;-79
2021/12/29 02:57:56;;;;;;;0.50;0.30;;;;;;;0.24;100.00;99263.84;5045609;28;20397;-79
2021/12/29 03:00:24;;;;;;;0.30;0.30;;;;;;;0.23;100.00;99267.56;5050046;28;20033;-80
2021/12/29 03:02:52;;;;;;;1.95;0.73;;;;;;;0.23;100.00;99267.56;5035016;28;20057;-79
2021/12/29 03:05:26;;;;;;;2.75;0.70;;;;;;;0.21;100.00;99275.00;5042163;28;20046;-79
2021/12/29 03:08:01;;;;;;;4.72;1.10;;;;;;;0.22;100.00;99268.63;5046849;28;20052;-80
2021/12/29 03:10:29;;;;;;;1.70;0.80;;;;;;;0.16;100.00;99270.41;5048278;28;20060;-78
2021/12/29 03:13:03;;;;;;;3.40;1.00;;;;;;;0.16;100.00;99273.09;5045476;28;20049;-79
2021/12/29 03:15:31;;;;;;;2.50;0.95;;;;;;;0.12;100.00;99282.66;5046207;28;20049;-79
2021/12/29 03:18:06;;;;;;;2.22;0.70;;;;;;;0.12;100.00;99277.31;5048876;28;20627;-79
2021/12/29 03:20:34;;;;;;;0.70;0.50;;;;;;;0.14;100.00;99289.38;5042552;28;20056;-79
2021/12/29 03:23:04;;;;;;;0.85;0.55;;;;;;;0.15;100.00;99287.50;5041292;28;20045;-80
2021/12/29 03:25:37;;;;;;;2.20;0.77;;;;;;;0.14;100.00;99297.41;5040519;28;20059;-79
2021/12/29 03:28:11;;;;;;;0.35;0.35;;;;;;;0.13;100.00;99297.66;5040861;28;20049;-79
2021/12/29 03:30:48;;;;;;;1.60;0.80;;;;;;;0.12;100.00;99304.06;5044231;28;20052;-79
2021/12/29 03:33:22;;;;;;;2.47;0.80;;;;;;;0.14;100.00;99312.66;5050358;28;20052;-79
2021/12/29 03:35:59;;;;;;;1.10;0.50;;;;;;;0.13;100.00;99311.03;5040270;28;20044;-79
2021/12/29 03:38:36;;;;;;;1.13;0.60;;;;;;;0.12;100.00;99315.56;5045001;28;20048;-79
2021/12/29 03:41:11;;;;;;;2.33;0.77;;;;;;;0.12;100.00;99322.78;5043306;28;20049;-79
2021/12/29 03:43:45;;;;;;;2.28;0.80;;;;;;;0.11;100.00;99334.53;5047214;28;20048;-78
2021/12/29 03:46:19;;;;;;;0.40;0.40;;;;;;;0.10;100.00;99330.25;5038769;28;20419;-79
2021/12/29 03:48:53;;;;;;;2.63;0.90;;;;;;;0.08;100.00;99335.81;5038509;28;20056;-78
2021/12/29 03:51:21;;;;;;;1.48;0.50;;;;;;;0.15;100.00;99344.53;5046899;28;20052;-81
2021/12/29 03:53:56;;;;;;;1.02;0.57;;;;;;;0.11;100.00;99346.06;5047291;28;20049;-82
2021/12/29 03:56:29;;;;;;;1.23;0.50;;;;;;;0.25;100.00;99351.88;5040785;28;20064;-82
2021/12/29 03:59:03;;;;;;;0.80;0.40;;;;;;;0.15;100.00;99347.19;5039741;28;20060;-81
2021/12/29 04:01:31;;;;;;;1.73;0.80;;;;;;;0.13;100.00;99348.50;5051422;28;20401;-81
2021/12/29 04:04:04;;;;;;;1.88;0.60;;;;;;;0.17;100.00;99353.09;5044104;28;20059;-81
2021/12/29 04:06:33;;;;;;;1.52;0.75;;;;;;;0.17;100.00;99347.75;5040041;28;20061;-81
2021/12/29 04:09:07;;;;;;;1.77;0.60;;;;;;;0.16;100.00;99353.34;5046035;28;20048;-81
2021/12/29 04:11:40;;;;;;;2.03;0.70;;;;;;;0.11;100.00;99355.94;5048534;28;20045;-80
2021/12/29 04:14:13;;;;;;;3.58;0.90;;;;;;;0.08;100.00;99362.56;5064734;28;20056;-81
2021/12/29 04:16:45;;;;;;;1.75;0.70;;;;;;;0.12;100.00;99377.09;5045088;28;20389;-80
2021/12/29 04:19:29;;;;;;;0.40;0.40;;;;;;;0.11;100.00;99372.81;5048968;28;20057;-80
2021/12/29 04:22:01;;;;;;;0.95;0.50;;;;;;;0.12;100.00;99385.13;5044872;28;20041;-79
2021/12/29 04:24:37;;;;;;;2.10;0.70;;;;;;;0.06;100.00;99382.63;5039928;28;20048;-82
2021/12/29 04:27:06;;;;;;;0.40;0.40;;;;;;;0.07;100.00;99386.91;5063089;28;20654;-81
2021/12/29 04:29:39;;;;;;;0.40;0.40;;;;;;;0.08;100.00;99383.19;5051573;28;20496;-80
2021/12/29 04:32:08;;;;;;;0.85;0.50;;;;;;;0.06;100.00;99378.06;5048002;28;20052;-80
2021/12/29 04:34:36;;;;;;;0.90;0.60;;;;;;;0.12;100.00;99389.66;5041606;28;20044;-80
2021/12/29 04:37:05;;;;;;;0.93;0.50;;;;;;;-0.02;100.00;99370.44;5050117;28;20417;-81
2021/12/29 04:39:39;;;;;;;0.50;0.50;;;;;;;0.13;100.00;99383.25;5047116;28;20045;-80
2021/12/29 04:42:12;;;;;;;1.05;0.60;;;;;;;0.09;100.00;99390.16;5041353;28;20053;-80
2021/12/29 04:44:45;;;;;;;2.60;0.90;;;;;;;0.09;100.00;99384.81;5049780;28;20473;-80
2021/12/29 04:47:19;;;;;;;1.75;0.55;;;;;;;0.10;100.00;99400.59;5051767;28;20056;-79
2021/12/29 04:49:52;;;;;;;0.50;0.45;;;;;;;0.14;100.00;99396.41;5050128;28;20485;-80
2021/12/29 04:52:20;;;;;;;1.10;0.50;;;;;;;0.18;100.00;99410.13;5042093;28;20054;-80
2021/12/29 04:54:55;;;;;;;0.75;0.40;;;;;;;0.15;100.00;99416.75;5051155;28;20049;-80
2021/12/29 04:57:30;;;;;;;0.73;0.50;;;;;;;0.16;100.00;99421.03;5054616;28;20059;-80
2021/12/29 05:00:05;;;;;;;0.63;0.55;;;;;;;0.16;100.00;99433.59;5048153;28;20060;-80
2021/12/29 05:02:39;;;;;;;0.73;0.52;;;;;;;0.14;100.00;99433.84;5045450;28;20048;-80
2021/12/29 05:05:19;;;;;;;1.05;0.50;;;;;;;0.07;100.00;99438.56;5046622;28;20052;-79
2021/12/29 05:10:40;;;;;;;0.40;0.40;;;;;;;0.17;100.00;99445.94;5056927;28;20052;-80
2021/12/29 05:13:13;;;;;;;0.40;0.40;;;;;;;0.14;100.00;99455.25;5048894;28;20393;-80
2021/12/29 05:15:47;;;;;;;0.38;0.38;;;;;;;0.17;100.00;99459.31;5046629;28;20052;-80
2021/12/29 05:18:20;;;;;;;0.88;0.50;;;;;;;0.17;100.00;99460.13;5052170;28;20043;-80
2021/12/29 05:20:48;;;;;;;0.40;0.40;;;;;;;0.12;100.00;99461.91;5056627;28;20488;-80
2021/12/29 05:23:16;;;;;;;0.30;0.30;;;;;;;0.14;100.00;99459.81;5049967;28;20049;-81
2021/12/29 05:25:52;;;;;;;0.30;0.30;;;;;;;0.18;100.00;99468.97;5050889;28;20112;-80
2021/12/29 05:28:25;;;;;;;0.30;0.30;;;;;;;0.15;100.00;99458.72;5052254;28;20049;-80
2021/12/29 05:30:54;;;;;;;0.40;0.40;;;;;;;0.20;100.00;99471.41;5047407;28;20045;-80
2021/12/29 05:33:23;;;;;;;0.30;0.30;;;;;;;0.20;100.00;99480.22;5052230;28;20045;-81
2021/12/29 05:35:56;;;;;;;0.30;0.30;;;;;;;0.17;100.00;99475.38;5045898;28;20060;-80
2021/12/29 05:38:29;;;;;;;0.40;0.40;;;;;;;0.16;100.00;99463.03;5047549;28;20048;-80
2021/12/29 05:40:59;;;;;;;0.50;0.50;;;;;;;0.25;100.00;99474.97;5047705;28;20063;-79
2021/12/29 05:43:33;;;;;;;0.30;0.30;;;;;;;0.23;100.00;99474.41;5044284;28;20052;-79
2021/12/29 05:46:06;;;;;;;0.30;0.30;;;;;;;0.22;100.00;99475.47;5049803;28;20053;-81
2021/12/29 05:48:39;;;;;;;0.28;0.28;;;;;;;0.22;100.00;99475.47;5043323;28;20388;-81
2021/12/29 05:51:07;;;;;;;0.40;0.40;;;;;;;0.24;100.00;99480.56;5042585;28;20049;-81
2021/12/29 05:53:41;;;;;;;0.43;0.43;;;;;;;0.25;100.00;99474.97;5049903;28;20052;-80
2021/12/29 05:56:11;;;;;;;0.35;0.35;;;;;;;0.22;100.00;99474.63;5045716;28;20048;-80
2021/12/29 05:58:45;;;;;;;0.30;0.30;;;;;;;0.20;100.00;99479.44;5048638;28;20051;-81
2021/12/29 06:01:18;;;;;;;0.40;0.40;;;;;;;0.28;100.00;99495.91;5044784;28;20064;-80
2021/12/29 06:03:51;;;;;;;0.30;0.30;;;;;;;0.28;100.00;99498.56;5049476;28;20045;-80
2021/12/29 06:06:24;;;;;;;0.20;0.20;;;;;;;0.30;100.00;99501.84;5047449;28;20044;-79
2021/12/29 06:08:57;;;;;;;0.30;0.30;;;;;;;0.27;100.00;99509.53;5046269;28;20061;-80
2021/12/29 06:11:32;;;;;;;0.40;0.40;;;;;;;0.24;100.00;99505.47;5045921;28;20485;-81
2021/12/29 06:14:05;;;;;;;0.30;0.30;;;;;;;0.25;100.00;99504.41;5042293;28;20061;-80
2021/12/29 06:16:38;;;;;;;0.32;0.32;;;;;;;0.27;100.00;99515.66;5050437;28;20045;-80
2021/12/29 06:19:12;;;;;;;0.32;0.32;;;;;;;0.29;100.00;99512.75;5049201;28;20041;-80
2021/12/29 06:21:45;;;;;;;0.30;0.30;;;;;;;0.26;100.00;99508.72;5043172;28;20052;-80
2021/12/29 06:24:18;;;;;;;0.40;0.40;;;;;;;0.30;100.00;99519.72;5049595;28;20052;-79
2021/12/29 06:26:52;;;;;;;0.30;0.30;;;;;;;0.26;100.00;99523.94;5045331;28;20045;-80
2021/12/29 06:29:25;;;;;;;0.40;0.40;;;;;;;0.27;100.00;99529.06;5046844;28;20051;-80
2021/12/29 06:31:59;;;;;;;0.30;0.30;;;;;;;0.30;100.00;99530.44;5047957;28;20036;-80
2021/12/29 06:34:34;;;;;;;0.38;0.38;;;;;;;0.32;100.00;99542.53;5061963;28;20045;-80
2021/12/29 06:37:08;;;;;;;0.40;0.40;;;;;;;0.33;100.00;99538.81;5045938;28;20049;-80
2021/12/29 06:39:43;;;;;;;0.38;0.38;;;;;;;0.25;100.00;99536.53;5046901;28;20687;-80
2021/12/29 06:42:19;;;;;;;0.30;0.30;;;;;;;0.34;100.00;99553.78;5044388;28;20060;-80
2021/12/29 06:44:52;;;;;;;0.32;0.32;;;;;;;0.32;100.00;99552.44;5051632;28;20045;-80
2021/12/29 06:47:26;;;;;;;0.40;0.40;;;;;;;0.30;100.00;99555.34;5048784;28;20045;-80
2021/12/29 06:49:59;;;;;;;0.30;0.30;;;;;;;0.28;100.00;99562.78;5039404;28;20049;-80
2021/12/29 06:52:33;;;;;;;0.30;0.30;;;;;;;0.27;100.00;99571.88;5047311;28;20045;-79
2021/12/29 06:55:08;;;;;;;0.28;0.28;;;;;;;0.27;100.00;99579.09;5043040;28;20048;-79
2021/12/29 06:57:42;;;;;;;0.30;0.30;;;;;;;0.29;100.00;99580.47;5048571;28;20413;-81
2021/12/29 07:00:13;;;;;;;0.30;0.30;;;;;;;0.26;100.00;99583.66;5045298;28;20044;-80
2021/12/29 07:02:46;;;;;;;0.30;0.30;;;;;;;0.24;100.00;99590.28;5050500;28;20493;-80
2021/12/29 07:05:15;;;;;;;0.30;0.30;;;;;;;0.27;100.00;99587.94;5051108;28;20060;-80
2021/12/29 07:07:46;;;;;;;0.30;0.30;;;;;;;0.28;100.00;99596.78;5052386;28;20055;-79
2021/12/29 07:10:14;;;;;;;0.30;0.30;;;;;;;0.26;100.00;99602.38;5050383;28;20045;-79
2021/12/29 07:12:49;;;;;;;0.30;0.30;;;;;;;0.29;100.00;99615.28;5047444;28;20041;-79
2021/12/29 07:15:22;;;;;;;0.30;0.30;;;;;;;0.29;100.00;99611.75;5070567;28;20086;-80
2021/12/29 07:17:50;;;;;;;0.30;0.30;;;;;;;0.32;100.00;99617.47;5047338;28;20040;-80
2021/12/29 07:20:18;;;;;;;0.30;0.30;;;;;;;0.25;100.00;99618.66;5044848;28;20420;-80
2021/12/29 07:22:51;;;;;;;0.30;0.30;;;;;;;0.26;100.00;99625.63;5047334;28;20045;-80
2021/12/29 07:25:29;;;;;;;0.30;0.30;;;;;;;0.31;100.00;99623.88;5052409;28;20067;-79
2021/12/29 07:27:58;;;;;;;0.38;0.38;;;;;;;0.24;100.00;99631.22;5041781;28;20064;-80
2021/12/29 07:30:31;;;;;;;0.25;0.25;;;;;;;0.27;100.00;99641.44;5051679;28;20397;-80
2021/12/29 07:33:04;;;;;;;0.30;0.30;;;;;;;0.30;100.00;99648.19;5040416;28;20041;-79
2021/12/29 07:35:38;;;;;;;0.40;0.40;;;;;;;0.26;100.00;99653.22;5070426;28;20406;-80
2021/12/29 07:38:11;;;;;;;0.40;0.40;;;;;;;0.30;100.00;99658.91;5041628;28;20045;-80
2021/12/29 07:40:44;;;;;;;0.20;0.20;;;;;;;0.32;100.00;99665.63;5041239;28;20049;-80
2021/12/29 07:43:14;;;;;;;0.30;0.30;;;;;;;0.30;100.00;99675.78;5045358;28;20052;-80
2021/12/29 07:45:50;;;;;;;0.30;0.30;;;;;;;0.34;100.00;99687.63;5050577;28;20079;-80
2021/12/29 07:48:27;;;;;;;0.30;0.30;;;;;;;0.40;100.00;99690.41;5047123;28;20049;-80
2021/12/29 07:50:55;;;;;;;0.30;0.30;;;;;;;0.39;100.00;99700.31;5048360;28;20053;-81
2021/12/29 07:53:29;;;;;;;0.20;0.20;;;;;;;0.30;100.00;99691.00;5052243;28;20041;-80
2021/12/29 07:55:57;;;;;;;0.30;0.30;;;;;;;0.34;100.00;99708.22;5052604;28;20044;-80
2021/12/29 07:58:31;;;;;;;0.40;0.40;;;;;;;0.40;100.00;99706.47;5051892;28;20049;-80
2021/12/29 08:01:05;;;;;;;0.35;0.35;;;;;;;0.41;100.00;99714.25;5047549;28;20476;-80
2021/12/29 08:03:40;;;;;;;0.30;0.30;;;;;;;0.42;100.00;99718.56;5048929;28;20056;-80
2021/12/29 08:06:16;;;;;;;0.30;0.30;;;;;;;0.43;100.00;99719.38;5046262;28;20057;-80
2021/12/29 08:08:49;;;;;;;0.30;0.30;;;;;;;0.48;100.00;99724.81;5049739;28;20048;-80
2021/12/29 08:11:23;;;;;;;0.30;0.30;;;;;;;0.49;100.00;99721.13;5046120;28;20056;-80
2021/12/29 08:13:57;;;;;;;0.30;0.30;;;;;;;0.46;100.00;99724.28;5043032;28;20041;-80
2021/12/29 08:16:30;;;;;;;0.30;0.30;;;;;;;0.47;100.00;99733.91;5050353;28;20061;-80
2021/12/29 08:19:04;;;;;;;0.30;0.30;;;;;;;0.46;100.00;99749.16;5055376;28;20057;-80
2021/12/29 08:21:38;;;;;;;0.20;0.20;;;;;;;0.44;100.00;99755.78;5046135;28;20060;-80
2021/12/29 08:24:11;;;;;;;0.30;0.30;;;;;;;0.39;100.00;99756.50;5045246;28;20041;-79
2021/12/29 08:26:44;;;;;;;0.30;0.30;;;;;;;0.47;100.00;99768.69;5047756;28;20053;-79
2021/12/29 08:29:18;;;;;;;0.22;0.22;;;;;;;0.47;100.00;99771.38;5042831;28;20461;-79
2021/12/29 08:31:47;;;;;;;0.30;0.30;;;;;;;0.49;100.00;99771.97;5051799;28;20072;-80
2021/12/29 08:34:15;;;;;;;0.30;0.30;;;;;;;0.47;100.00;99768.69;5047104;28;20045;-80
2021/12/29 08:36:49;;;;;;;0.20;0.20;;;;;;;0.40;100.00;99755.47;5044816;28;20698;-80
2021/12/29 08:39:23;;;;;;;0.28;0.28;;;;;;;0.48;100.00;99768.50;5048651;28;20041;-79
2021/12/29 08:41:56;;;;;;;0.30;0.30;;;;;;;0.50;100.00;99770.94;5055794;28;20049;-80
2021/12/29 08:44:31;;;;;;;0.30;0.30;;;;;;;0.48;100.00;99771.16;5047215;28;20052;-80
2021/12/29 08:46:59;;;;;;;0.25;0.25;;;;;;;0.50;100.00;99771.75;5030353;28;20057;-80
2021/12/29 08:49:27;;;;;;;0.30;0.30;;;;;;;0.45;100.00;99757.44;5029643;28;20065;-81
2021/12/29 08:52:01;;;;;;;0.30;0.30;;;;;;;0.56;100.00;99772.66;5032433;28;20059;-80
2021/12/29 08:54:34;;;;;;;0.30;0.30;;;;;;;0.57;100.00;99778.84;5031538;28;20055;-81
2021/12/29 08:57:08;;;;;;;0.20;0.20;;;;;;;0.52;100.00;99765.34;5033492;28;20459;-80
2021/12/29 08:59:42;;;;;;;0.30;0.30;;;;;;;0.52;100.00;99765.34;5030056;28;20528;-80
2021/12/29 09:02:16;;;;;;;0.30;0.30;;;;;;;0.54;100.00;99766.75;5046108;28;20092;-80
2021/12/29 09:04:44;;;;;;;0.30;0.30;;;;;;;0.64;100.00;99780.31;5026676;28;20052;-79
2021/12/29 09:07:17;;;;;;;0.30;0.30;;;;;;;0.66;100.00;99782.75;5031505;28;20053;-79
2021/12/29 09:09:45;;;;;;;0.28;0.28;;;;;;;0.71;100.00;99774.84;5029799;28;20057;-81
2021/12/29 09:12:14;;;;;;;0.20;0.20;;;;;;;0.73;100.00;99771.91;5032763;28;20072;-80
2021/12/29 09:14:48;;;;;;;0.30;0.30;;;;;;;0.73;100.00;99762.00;5032870;28;20052;-79
2021/12/29 09:17:21;;;;;;;0.30;0.30;;;;;;;0.81;100.00;99768.88;5024708;28;20059;-80
2021/12/29 09:19:55;;;;;;;0.20;0.20;;;;;;;0.82;100.00;99765.94;5027961;28;20848;-80
2021/12/29 09:22:29;;;;;;;0.30;0.30;;;;;;;0.82;100.00;99771.31;5033676;28;20049;-79
2021/12/29 09:24:57;;;;;;;0.30;0.30;;;;;;;0.86;100.00;99777.00;5032219;28;20111;-80
2021/12/29 09:27:30;;;;;;;0.30;0.30;;;;;;;0.90;100.00;99783.53;5031263;28;20049;-81
2021/12/29 09:30:06;;;;;;;0.30;0.30;;;;;;;0.88;100.00;99782.94;5026416;28;20434;-80
2021/12/29 09:32:34;;;;;;;0.30;0.30;;;;;;;0.95;100.00;99791.66;5027204;28;20060;-81
2021/12/29 09:35:02;;;;;;;0.30;0.30;;;;;;;0.94;100.00;99799.91;5026395;28;20049;-81
2021/12/29 09:37:31;;;;;;;0.30;0.30;;;;;;;1.01;100.00;99803.31;5021340;28;20064;-79
2021/12/29 09:40:05;;;;;;;0.30;0.30;;;;;;;1.00;100.00;99807.81;5027186;28;20053;-79
2021/12/29 09:42:34;;;;;;;0.28;0.28;;;;;;;1.02;100.00;99811.09;5028014;28;20492;-80
2021/12/29 09:45:06;;;;;;;0.38;0.38;;;;;;;1.01;100.00;99825.53;5027303;28;20091;-80
2021/12/29 09:47:35;;;;;;;0.30;0.30;;;;;;;1.00;100.00;99815.06;5029249;28;20477;-80
2021/12/29 09:50:13;;;;;;;0.30;0.30;;;;;;;0.90;100.00;99815.66;5030854;28;20044;-79
2021/12/29 09:52:47;;;;;;;0.30;0.30;;;;;;;0.88;100.00;99825.00;5026561;28;20060;-80
2021/12/29 09:55:22;;;;;;;0.40;0.40;;;;;;;0.92;100.00;99813.56;5026400;28;20061;-78
2021/12/29 09:57:53;;;;;;;0.30;0.30;;;;;;;0.98;100.00;99814.47;5026613;28;20048;-79
2021/12/29 10:00:31;;;;;;;0.30;0.30;;;;;;;1.02;100.00;99805.72;5027039;28;20056;-80
2021/12/29 10:03:09;;;;;;;0.20;0.20;;;;;;;1.05;100.00;99817.00;5025870;28;20821;-80
2021/12/29 10:05:44;;;;;;;0.30;0.30;;;;;;;1.07;100.00;99820.28;5022574;28;20063;-80
2021/12/29 10:08:20;;;;;;;0.20;0.20;;;;;;;1.10;100.00;99809.88;5027297;28;20084;-81
2021/12/29 10:10:55;;;;;;;0.22;0.22;;;;;;;1.09;100.00;99832.41;5029218;28;20060;-80
2021/12/29 10:13:30;;;;;;;0.30;0.30;;;;;;;1.14;100.00;99819.06;5027351;28;20060;-81
2021/12/29 10:16:04;;;;;;;0.30;0.30;;;;;;;1.19;100.00;99821.06;5028711;28;20061;-81
2021/12/29 10:18:40;;;;;;;0.28;0.28;;;;;;;1.16;100.00;99818.84;5028970;28;20053;-79
2021/12/29 10:21:16;;;;;;;0.30;0.30;;;;;;;1.15;100.00;99814.56;5024273;28;21414;-80
2021/12/29 10:23:51;;;;;;;0.20;0.20;;;;;;;1.15;100.00;99810.00;5023075;28;20057;-81
2021/12/29 10:26:27;;;;;;;0.30;0.30;;;;;;;1.23;100.00;99814.16;5021913;28;20052;-81
2021/12/29 10:29:03;;;;;;;0.73;0.20;;;;;;;1.26;100.00;99819.03;5029204;28;20056;-80
2021/12/29 10:31:40;;;;;;;0.20;0.20;;;;;;;1.27;100.00;99822.53;5026725;28;20766;-80
2021/12/29 10:34:10;;;;;;;0.20;0.20;;;;;;;1.28;100.00;99835.69;5025350;28;20231;-81
2021/12/29 10:36:47;;;;;;;0.22;0.22;;;;;;;1.31;100.00;99839.75;5027869;28;20053;-81
2021/12/29 10:39:23;;;;;;;0.40;0.40;;;;;;;1.33;100.00;99848.41;5027611;28;20063;-80
2021/12/29 10:41:59;;;;;;;0.30;0.30;;;;;;;1.33;100.00;99859.13;5030465;28;20049;-80
2021/12/29 10:44:30;;;;;;;0.30;0.30;;;;;;;1.33;100.00;99846.50;5037954;28;20045;-81
2021/12/29 10:47:14;;;;;;;0.30;0.30;;;;;;;1.36;100.00;99859.44;5031650;28;20045;-80
2021/12/29 10:49:51;;;;;;;0.20;0.20;;;;;;;1.30;100.00;99860.41;5024971;28;20053;-81
2021/12/29 10:52:30;;;;;;;0.30;0.30;;;;;;;1.39;100.00;99866.19;5026853;28;20052;-80
2021/12/29 10:54:59;;;;;;;0.30;0.30;;;;;;;1.35;100.00;99873.09;5032561;28;20049;-80
2021/12/29 10:57:27;;;;;;;0.20;0.20;;;;;;;1.40;100.00;99877.75;5027262;28;20939;-79
2021/12/29 11:00:03;;;;;;;0.30;0.30;;;;;;;1.34;100.00;99856.19;5032244;28;20052;-79
2021/12/29 11:02:36;;;;;;;0.30;0.30;;;;;;;1.38;100.00;99853.84;5027374;28;20052;-80
2021/12/29 11:05:06;;;;;;;0.30;0.30;;;;;;;1.34;100.00;99866.91;5047698;28;20049;-79
2021/12/29 11:07:35;;;;;;;0.40;0.40;;;;;;;1.44;100.00;99866.28;5029203;28;20053;-80
2021/12/29 11:10:11;;;;;;;0.30;0.30;;;;;;;1.45;100.00;99870.63;5030093;28;20064;-79
2021/12/29 11:12:46;;;;;;;0.20;0.20;;;;;;;1.42;100.00;99860.34;5018152;28;20045;-80
2021/12/29 11:15:23;;;;;;;0.25;0.25;;;;;;;1.49;100.00;99876.28;5018985;28;20053;-79
2021/12/29 11:18:04;;;;;;;0.30;0.30;;;;;;;1.49;100.00;99887.03;5026230;28;20057;-79
2021/12/29 11:20:39;;;;;;;0.30;0.30;;;;;;;1.45;100.00;99885.88;5032376;28;20049;-79
2021/12/29 11:23:14;;;;;;;0.30;0.30;;;;;;;1.52;100.00;99881.19;5028039;28;20610;-79
2021/12/29 11:25:48;;;;;;;0.32;0.32;;;;;;;1.47;100.00;99889.94;5025156;28;20048;-79
2021/12/29 11:28:24;;;;;;;0.30;0.30;;;;;;;1.58;100.00;99884.78;5026862;28;20560;-80
2021/12/29 11:30:59;;;;;;;0.30;0.30;;;;;;;1.60;100.00;99871.94;5026486;28;20751;-79
2021/12/29 11:33:33;;;;;;;0.30;0.30;;;;;;;1.61;100.00;99884.31;5026828;28;20704;-80
2021/12/29 11:36:02;;;;;;;0.30;0.30;;;;;;;1.58;100.00;99879.41;5028208;28;20587;-79
2021/12/29 11:38:35;;;;;;;0.30;0.30;;;;;;;1.61;100.00;99885.09;5028210;28;20076;-80
2021/12/29 11:41:09;;;;;;;0.20;0.20;;;;;;;1.65;100.00;99880.09;5030350;28;20052;-80
2021/12/29 11:43:38;;;;;;;0.20;0.20;;;;;;;1.67;100.00;99875.28;5030845;28;20067;-80
2021/12/29 11:46:11;;;;;;;0.30;0.30;;;;;;;1.65;100.00;99867.47;5028540;28;20045;-79
2021/12/29 11:48:47;;;;;;;0.30;0.30;;;;;;;1.78;100.00;99855.66;5029734;28;20057;-79
2021/12/29 11:51:31;;;;;;;0.30;0.30;;;;;;;1.65;100.00;99855.94;5030619;28;20061;-78
2021/12/29 11:54:03;;;;;;;0.30;0.30;;;;;;;1.71;100.00;99873.75;5031654;28;20397;-79
2021/12/29 11:56:41;;;;;;;0.40;0.40;;;;;;;1.66;100.00;99881.72;5029757;28;20048;-82
2021/12/29 11:59:15;;;;;;;0.30;0.30;;;;;;;1.67;100.00;99894.06;5032411;28;20053;-79
2021/12/29 12:01:55;;;;;;;0.20;0.20;;;;;;;1.66;100.00;99890.56;5025414;28;20720;-78
2021/12/29 12:04:30;;;;;;;0.20;0.20;;;;;;;1.56;100.00;99868.94;5029830;28;20056;-79
2021/12/29 12:07:04;;;;;;;0.30;0.30;;;;;;;1.70;100.00;99897.09;5020629;28;20509;-79